sensor_id;sensor_type;location;lat;lon;timestamp;pressure;altitude;pressure_sealevel;temperature;humidity
66176;BME280;52977;44.816;20.538;2023-08-06T00:00:25;98546.97;;;20.19;100.00
66176;BME280;52977;44.816;20.538;2023-08-06T00:02:51;98577.56;;;20.39;100.00
66176;BME280;52977;44.816;20.538;2023-08-06T00:05:17;98536.13;;;20.28;100.00
66176;BME280;52977;44.816;20.538;2023-08-06T00:07:50;98564.38;;;20.47;100.00
66176;BME280;52977;44.816;20.538;2023-08-06T00:10:17;98562.41;;;20.47;100.00
66176;BME280;52977;44.816;20.538;2023-08-06T00:12:44;98569.13;;;20.50;100.00
66176;BME280;52977;44.816;20.538;2023-08-06T00:15:10;98568.28;;;20.53;100.00
66176;BME280;52977;44.816;20.538;2023-08-06T00:17:37;98551.69;;;20.49;100.00
66176;BME280;52977;44.816;20.538;2023-08-06T00:20:04;98552.38;;;20.57;100.00
66176;BME280;52977;44.816;20.538;2023-08-06T00:22:33;98489.25;;;20.14;100.00
66176;BME280;52977;44.816;20.538;2023-08-06T00:24:59;98535.78;;;20.54;100.00
66176;BME280;52977;44.816;20.538;2023-08-06T00:27:26;98528.19;;;20.58;100.00
66176;BME280;52977;44.816;20.538;2023-08-06T00:29:52;98514.75;;;20.56;100.00
66176;BME280;52977;44.816;20.538;2023-08-06T00:32:18;98508.03;;;20.57;100.00
66176;BME280;52977;44.816;20.538;2023-08-06T00:34:44;98500.44;;;20.61;100.00
66176;BME280;52977;44.816;20.538;2023-08-06T00:37:10;98455.22;;;20.41;100.00
66176;BME280;52977;44.816;20.538;2023-08-06T00:39:38;98435.53;;;20.31;100.00
66176;BME280;52977;44.816;20.538;2023-08-06T00:42:05;98484.38;;;20.49;100.00
66176;BME280;52977;44.816;20.538;2023-08-06T00:44:32;98482.66;;;20.59;100.00
66176;BME280;52977;44.816;20.538;2023-08-06T00:46:58;98431.16;;;20.34;100.00
66176;BME280;52977;44.816;20.538;2023-08-06T00:49:24;98438.44;;;20.52;100.00
66176;BME280;52977;44.816;20.538;2023-08-06T00:51:50;98449.44;;;20.55;100.00
66176;BME280;52977;44.816;20.538;2023-08-06T00:54:18;98448.34;;;20.49;100.00
66176;BME280;52977;44.816;20.538;2023-08-06T00:56:44;98433.78;;;20.45;100.00
66176;BME280;52977;44.816;20.538;2023-08-06T00:59:11;98417.63;;;20.12;100.00
66176;BME280;52977;44.816;20.538;2023-08-06T01:01:38;98441.56;;;20.26;100.00
66176;BME280;52977;44.816;20.538;2023-08-06T01:04:04;98451.75;;;20.33;100.00
66176;BME280;52977;44.816;20.538;2023-08-06T01:06:40;98463.22;;;20.35;100.00
66176;BME280;52977;44.816;20.538;2023-08-06T01:09:42;98462.75;;;20.40;100.00
66176;BME280;52977;44.816;20.538;2023-08-06T01:15:29;98468.28;;;20.40;100.00
66176;BME280;52977;44.816;20.538;2023-08-06T01:17:57;98432.22;;;20.17;100.00
66176;BME280;52977;44.816;20.538;2023-08-06T01:20:28;98439.88;;;20.32;100.00
66176;BME280;52977;44.816;20.538;2023-08-06T01:22:54;98450.09;;;20.39;100.00
66176;BME280;52977;44.816;20.538;2023-08-06T01:25:20;98458.81;;;20.38;100.00
66176;BME280;52977;44.816;20.538;2023-08-06T01:27:49;98460.44;;;20.35;100.00
66176;BME280;52977;44.816;20.538;2023-08-06T01:30:23;98458.94;;;20.30;100.00
66176;BME280;52977;44.816;20.538;2023-08-06T01:32:58;98449.78;;;20.34;100.00
66176;BME280;52977;44.816;20.538;2023-08-06T01:35:27;98445.44;;;20.32;100.00
66176;BME280;52977;44.816;20.538;2023-08-06T01:37:57;98451.25;;;20.42;100.00
66176;BME280;52977;44.816;20.538;2023-08-06T01:40:23;98446.47;;;20.42;100.00
66176;BME280;52977;44.816;20.538;2023-08-06T01:42:49;98411.59;;;20.18;100.00
66176;BME280;52977;44.816;20.538;2023-08-06T01:45:15;98436.19;;;20.43;100.00
66176;BME280;52977;44.816;20.538;2023-08-06T01:47:41;98431.97;;;20.35;100.00
66176;BME280;52977;44.816;20.538;2023-08-06T01:50:08;98421.59;;;20.39;100.00
66176;BME280;52977;44.816;20.538;2023-08-06T01:52:34;98429.06;;;20.42;100.00
66176;BME280;52977;44.816;20.538;2023-08-06T01:55:00;98395.72;;;20.22;100.00
66176;BME280;52977;44.816;20.538;2023-08-06T01:57:26;98415.81;;;20.29;100.00
66176;BME280;52977;44.816;20.538;2023-08-06T01:59:52;98414.59;;;20.30;100.00
66176;BME280;52977;44.816;20.538;2023-08-06T02:02:18;98407.06;;;20.31;100.00
66176;BME280;52977;44.816;20.538;2023-08-06T02:04:46;98345.28;;;19.83;100.00
66176;BME280;52977;44.816;20.538;2023-08-06T02:07:11;98407.53;;;20.26;100.00
66176;BME280;52977;44.816;20.538;2023-08-06T02:09:37;98417.47;;;20.23;100.00
66176;BME280;52977;44.816;20.538;2023-08-06T02:12:03;98412.66;;;20.27;100.00
66176;BME280;52977;44.816;20.538;2023-08-06T02:14:29;98408.44;;;20.19;100.00
66176;BME280;52977;44.816;20.538;2023-08-06T02:16:54;98319.09;;;19.57;100.00
66176;BME280;52977;44.816;20.538;2023-08-06T02:19:20;98393.69;;;19.98;100.00
66176;BME280;52977;44.816;20.538;2023-08-06T02:21:45;98370.53;;;19.85;100.00
66176;BME280;52977;44.816;20.538;2023-08-06T02:24:11;98414.38;;;20.18;100.00
66176;BME280;52977;44.816;20.538;2023-08-06T02:26:37;98414.88;;;20.12;100.00
66176;BME280;52977;44.816;20.538;2023-08-06T02:29:03;98402.56;;;20.13;100.00
66176;BME280;52977;44.816;20.538;2023-08-06T02:31:29;98408.09;;;20.13;100.00
66176;BME280;52977;44.816;20.538;2023-08-06T02:33:55;98409.31;;;20.12;100.00
66176;BME280;52977;44.816;20.538;2023-08-06T02:36:21;98407.41;;;20.09;100.00
66176;BME280;52977;44.816;20.538;2023-08-06T02:38:47;98388.72;;;19.86;100.00
66176;BME280;52977;44.816;20.538;2023-08-06T02:41:12;98415.84;;;19.98;100.00
66176;BME280;52977;44.816;20.538;2023-08-06T02:43:38;98423.00;;;19.96;100.00
66176;BME280;52977;44.816;20.538;2023-08-06T02:46:04;98400.25;;;19.81;100.00
66176;BME280;52977;44.816;20.538;2023-08-06T02:48:29;98428.97;;;19.94;100.00
66176;BME280;52977;44.816;20.538;2023-08-06T02:50:59;98397.50;;;19.81;100.00
66176;BME280;52977;44.816;20.538;2023-08-06T02:53:26;98411.47;;;20.01;100.00
66176;BME280;52977;44.816;20.538;2023-08-06T02:55:52;98415.78;;;20.02;100.00
66176;BME280;52977;44.816;20.538;2023-08-06T02:58:23;98393.28;;;20.00;100.00
66176;BME280;52977;44.816;20.538;2023-08-06T03:01:03;98404.25;;;20.07;100.00
66176;BME280;52977;44.816;20.538;2023-08-06T03:03:55;98418.53;;;20.06;100.00
66176;BME280;52977;44.816;20.538;2023-08-06T03:06:27;98384.75;;;19.87;100.00
66176;BME280;52977;44.816;20.538;2023-08-06T03:08:56;98387.69;;;19.73;100.00
66176;BME280;52977;44.816;20.538;2023-08-06T03:11:21;98406.81;;;19.94;100.00
66176;BME280;52977;44.816;20.538;2023-08-06T03:13:50;98417.03;;;19.97;100.00
66176;BME280;52977;44.816;20.538;2023-08-06T03:16:17;98377.03;;;19.71;100.00
66176;BME280;52977;44.816;20.538;2023-08-06T03:18:43;98403.63;;;19.96;100.00
66176;BME280;52977;44.816;20.538;2023-08-06T03:21:09;98395.34;;;19.92;100.00
66176;BME280;52977;44.816;20.538;2023-08-06T03:23:37;98396.25;;;19.86;100.00
66176;BME280;52977;44.816;20.538;2023-08-06T03:26:04;98394.69;;;19.85;100.00
66176;BME280;52977;44.816;20.538;2023-08-06T03:28:32;98384.84;;;19.80;100.00
66176;BME280;52977;44.816;20.538;2023-08-06T03:31:04;98392.97;;;19.94;100.00
66176;BME280;52977;44.816;20.538;2023-08-06T03:33:40;98403.94;;;20.02;100.00
66176;BME280;52977;44.816;20.538;2023-08-06T03:36:12;98361.59;;;19.70;100.00
66176;BME280;52977;44.816;20.538;2023-08-06T03:38:38;98389.56;;;19.83;100.00
66176;BME280;52977;44.816;20.538;2023-08-06T03:41:06;98372.44;;;19.61;100.00
66176;BME280;52977;44.816;20.538;2023-08-06T03:43:33;98385.75;;;19.70;100.00
66176;BME280;52977;44.816;20.538;2023-08-06T03:46:01;98409.63;;;19.91;100.00
66176;BME280;52977;44.816;20.538;2023-08-06T03:48:27;98404.16;;;19.87;100.00
66176;BME280;52977;44.816;20.538;2023-08-06T03:50:53;98425.03;;;19.92;100.00
66176;BME280;52977;44.816;20.538;2023-08-06T03:53:21;98420.66;;;19.94;100.00
66176;BME280;52977;44.816;20.538;2023-08-06T03:55:47;98416.31;;;19.93;100.00
66176;BME280;52977;44.816;20.538;2023-08-06T03:58:13;98345.66;;;19.51;100.00
66176;BME280;52977;44.816;20.538;2023-08-06T04:00:41;98385.28;;;19.75;100.00
66176;BME280;52977;44.816;20.538;2023-08-06T04:03:06;98384.91;;;19.73;100.00
66176;BME280;52977;44.816;20.538;2023-08-06T04:05:32;98347.44;;;19.37;100.00
66176;BME280;52977;44.816;20.538;2023-08-06T04:07:58;98359.34;;;19.34;100.00
66176;BME280;52977;44.816;20.538;2023-08-06T04:10:25;98400.94;;;19.58;100.00
66176;BME280;52977;44.816;20.538;2023-08-06T04:12:51;98411.03;;;19.72;100.00
66176;BME280;52977;44.816;20.538;2023-08-06T04:15:17;98414.25;;;19.67;100.00
66176;BME280;52977;44.816;20.538;2023-08-06T04:17:42;98400.84;;;19.65;100.00
66176;BME280;52977;44.816;20.538;2023-08-06T04:20:08;98396.91;;;19.62;100.00
66176;BME280;52977;44.816;20.538;2023-08-06T04:22:34;98412.91;;;19.82;100.00
66176;BME280;52977;44.816;20.538;2023-08-06T04:25:00;98365.03;;;19.51;100.00
66176;BME280;52977;44.816;20.538;2023-08-06T04:27:25;98415.38;;;19.73;100.00
66176;BME280;52977;44.816;20.538;2023-08-06T04:29:51;98407.53;;;19.68;100.00
66176;BME280;52977;44.816;20.538;2023-08-06T04:32:17;98410.66;;;19.70;100.00
66176;BME280;52977;44.816;20.538;2023-08-06T04:34:47;98409.31;;;19.51;100.00
66176;BME280;52977;44.816;20.538;2023-08-06T04:37:13;98370.63;;;19.12;100.00
66176;BME280;52977;44.816;20.538;2023-08-06T04:39:39;98367.53;;;19.07;100.00
66176;BME280;52977;44.816;20.538;2023-08-06T04:42:05;98356.38;;;19.14;100.00
66176;BME280;52977;44.816;20.538;2023-08-06T04:44:31;98410.06;;;19.55;100.00
66176;BME280;52977;44.816;20.538;2023-08-06T04:46:57;98300.81;;;19.05;100.00
66176;BME280;52977;44.816;20.538;2023-08-06T04:49:24;98399.84;;;19.83;100.00
66176;BME280;52977;44.816;20.538;2023-08-06T04:51:51;98408.78;;;19.94;100.00
66176;BME280;52977;44.816;20.538;2023-08-06T04:54:17;98406.34;;;20.00;100.00
66176;BME280;52977;44.816;20.538;2023-08-06T04:56:43;98400.81;;;20.00;100.00
66176;BME280;52977;44.816;20.538;2023-08-06T04:59:09;98411.06;;;20.03;100.00
66176;BME280;52977;44.816;20.538;2023-08-06T05:01:35;98413.41;;;20.04;100.00
66176;BME280;52977;44.816;20.538;2023-08-06T05:04:01;98371.81;;;19.77;100.00
66176;BME280;52977;44.816;20.538;2023-08-06T05:06:27;98416.94;;;20.05;100.00
66176;BME280;52977;44.816;20.538;2023-08-06T05:08:52;98410.25;;;20.02;100.00
66176;BME280;52977;44.816;20.538;2023-08-06T05:11:18;98397.31;;;19.95;100.00
66176;BME280;52977;44.816;20.538;2023-08-06T05:13:43;98405.34;;;19.86;100.00
66176;BME280;52977;44.816;20.538;2023-08-06T05:16:09;98332.16;;;19.25;100.00
66176;BME280;52977;44.816;20.538;2023-08-06T05:18:34;98441.28;;;19.90;100.00
66176;BME280;52977;44.816;20.538;2023-08-06T05:21:00;98446.00;;;19.93;100.00
66176;BME280;52977;44.816;20.538;2023-08-06T05:23:25;98442.00;;;19.94;100.00
66176;BME280;52977;44.816;20.538;2023-08-06T05:25:51;98455.91;;;19.90;100.00
66176;BME280;52977;44.816;20.538;2023-08-06T05:28:17;98442.53;;;19.85;100.00
66176;BME280;52977;44.816;20.538;2023-08-06T05:30:42;98431.13;;;19.79;100.00
66176;BME280;52977;44.816;20.538;2023-08-06T05:33:08;98444.16;;;19.79;100.00
66176;BME280;52977;44.816;20.538;2023-08-06T05:35:33;98388.13;;;19.37;100.00
66176;BME280;52977;44.816;20.538;2023-08-06T05:37:59;98439.41;;;19.83;100.00
66176;BME280;52977;44.816;20.538;2023-08-06T05:40:25;98422.06;;;19.75;100.00
66176;BME280;52977;44.816;20.538;2023-08-06T05:42:54;98454.13;;;20.04;100.00
66176;BME280;52977;44.816;20.538;2023-08-06T05:45:19;98454.09;;;20.07;100.00
66176;BME280;52977;44.816;20.538;2023-08-06T05:47:45;98453.56;;;20.16;100.00
66176;BME280;52977;44.816;20.538;2023-08-06T05:50:11;98454.88;;;20.08;100.00
66176;BME280;52977;44.816;20.538;2023-08-06T05:52:36;98452.84;;;20.12;100.00
66176;BME280;52977;44.816;20.538;2023-08-06T05:55:02;98461.78;;;20.23;100.00
66176;BME280;52977;44.816;20.538;2023-08-06T05:57:28;98464.19;;;20.21;100.00
66176;BME280;52977;44.816;20.538;2023-08-06T05:59:54;98431.59;;;20.05;100.00
66176;BME280;52977;44.816;20.538;2023-08-06T06:02:20;98473.13;;;20.32;100.00
66176;BME280;52977;44.816;20.538;2023-08-06T06:04:45;98467.59;;;20.32;100.00
66176;BME280;52977;44.816;20.538;2023-08-06T06:07:11;98482.19;;;20.37;100.00
66176;BME280;52977;44.816;20.538;2023-08-06T06:12:02;98441.41;;;20.10;100.00
66176;BME280;52977;44.816;20.538;2023-08-06T06:14:28;98463.69;;;20.30;100.00
66176;BME280;52977;44.816;20.538;2023-08-06T06:16:54;98452.84;;;20.12;100.00
66176;BME280;52977;44.816;20.538;2023-08-06T06:19:19;98476.34;;;20.31;100.00
66176;BME280;52977;44.816;20.538;2023-08-06T06:21:45;98484.97;;;20.37;100.00
66176;BME280;52977;44.816;20.538;2023-08-06T06:24:11;98483.03;;;20.34;100.00
66176;BME280;52977;44.816;20.538;2023-08-06T06:26:36;98490.16;;;20.35;100.00
66176;BME280;52977;44.816;20.538;2023-08-06T06:29:02;98488.88;;;20.39;100.00
66176;BME280;52977;44.816;20.538;2023-08-06T06:31:27;98479.94;;;20.28;100.00
66176;BME280;52977;44.816;20.538;2023-08-06T06:33:53;98487.78;;;20.33;100.00
66176;BME280;52977;44.816;20.538;2023-08-06T06:36:20;98443.75;;;20.11;100.00
66176;BME280;52977;44.816;20.538;2023-08-06T06:38:46;98501.03;;;20.49;100.00
66176;BME280;52977;44.816;20.538;2023-08-06T06:41:11;98474.25;;;20.39;100.00
66176;BME280;52977;44.816;20.538;2023-08-06T06:43:37;98496.97;;;20.54;100.00
66176;BME280;52977;44.816;20.538;2023-08-06T06:46:05;98499.72;;;20.57;100.00
66176;BME280;52977;44.816;20.538;2023-08-06T06:48:32;98476.38;;;20.55;100.00
66176;BME280;52977;44.816;20.538;2023-08-06T06:50:58;98493.63;;;20.70;100.00
66176;BME280;52977;44.816;20.538;2023-08-06T06:53:25;98497.19;;;20.66;100.00
66176;BME280;52977;44.816;20.538;2023-08-06T06:55:56;98497.28;;;20.59;100.00
66176;BME280;52977;44.816;20.538;2023-08-06T06:58:22;98475.88;;;20.36;100.00
66176;BME280;52977;44.816;20.538;2023-08-06T07:00:48;98493.75;;;20.59;100.00
66176;BME280;52977;44.816;20.538;2023-08-06T07:03:15;98447.16;;;20.23;100.00
66176;BME280;52977;44.816;20.538;2023-08-06T07:05:43;98485.53;;;20.52;100.00
66176;BME280;52977;44.816;20.538;2023-08-06T07:08:09;98472.25;;;20.39;100.00
66176;BME280;52977;44.816;20.538;2023-08-06T07:10:34;98468.03;;;20.31;100.00
66176;BME280;52977;44.816;20.538;2023-08-06T07:13:00;98512.00;;;20.56;100.00
66176;BME280;52977;44.816;20.538;2023-08-06T07:15:25;98415.13;;;19.94;100.00
66176;BME280;52977;44.816;20.538;2023-08-06T07:17:51;98515.91;;;20.59;100.00
66176;BME280;52977;44.816;20.538;2023-08-06T07:20:17;98510.25;;;20.66;100.00
66176;BME280;52977;44.816;20.538;2023-08-06T07:22:44;98497.66;;;20.61;100.00
66176;BME280;52977;44.816;20.538;2023-08-06T07:25:10;98513.16;;;20.86;100.00
66176;BME280;52977;44.816;20.538;2023-08-06T07:27:37;98471.63;;;20.55;100.00
66176;BME280;52977;44.816;20.538;2023-08-06T07:30:03;98486.09;;;20.66;100.00
66176;BME280;52977;44.816;20.538;2023-08-06T07:32:31;98519.25;;;21.01;100.00
66176;BME280;52977;44.816;20.538;2023-08-06T07:34:57;98509.78;;;20.98;100.00
66176;BME280;52977;44.816;20.538;2023-08-06T07:37:26;98500.53;;;20.81;100.00
66176;BME280;52977;44.816;20.538;2023-08-06T07:39:54;98525.53;;;21.05;100.00
66176;BME280;52977;44.816;20.538;2023-08-06T07:42:21;98494.94;;;20.85;100.00
66176;BME280;52977;44.816;20.538;2023-08-06T07:44:54;98528.75;;;21.00;100.00
66176;BME280;52977;44.816;20.538;2023-08-06T07:47:21;98486.09;;;20.66;100.00
66176;BME280;52977;44.816;20.538;2023-08-06T07:49:47;98523.22;;;20.76;100.00
66176;BME280;52977;44.816;20.538;2023-08-06T07:52:13;98491.00;;;20.55;100.00
66176;BME280;52977;44.816;20.538;2023-08-06T07:54:39;98513.69;;;20.77;100.00
66176;BME280;52977;44.816;20.538;2023-08-06T07:57:05;98490.03;;;20.69;100.00
66176;BME280;52977;44.816;20.538;2023-08-06T07:59:31;98504.00;;;20.89;100.00
66176;BME280;52977;44.816;20.538;2023-08-06T08:01:57;98411.41;;;20.32;100.00
66176;BME280;52977;44.816;20.538;2023-08-06T08:04:23;98476.69;;;20.88;100.00
66176;BME280;52977;44.816;20.538;2023-08-06T08:06:49;98523.22;;;21.24;100.00
66176;BME280;52977;44.816;20.538;2023-08-06T08:09:14;98483.59;;;20.99;100.00
66176;BME280;52977;44.816;20.538;2023-08-06T08:11:42;98511.91;;;21.14;100.00
66176;BME280;52977;44.816;20.538;2023-08-06T08:14:08;98525.22;;;21.23;100.00
66176;BME280;52977;44.816;20.538;2023-08-06T08:16:34;98498.81;;;21.15;100.00
66176;BME280;52977;44.816;20.538;2023-08-06T08:19:00;98503.25;;;21.32;100.00
66176;BME280;52977;44.816;20.538;2023-08-06T08:21:26;98503.28;;;21.09;100.00
66176;BME280;52977;44.816;20.538;2023-08-06T08:23:53;98529.00;;;21.57;100.00
66176;BME280;52977;44.816;20.538;2023-08-06T08:26:19;98532.66;;;21.50;100.00
66176;BME280;52977;44.816;20.538;2023-08-06T08:28:45;98532.66;;;21.50;100.00
66176;BME280;52977;44.816;20.538;2023-08-06T08:31:11;98505.22;;;21.32;100.00
66176;BME280;52977;44.816;20.538;2023-08-06T08:33:40;98535.00;;;21.55;100.00
66176;BME280;52977;44.816;20.538;2023-08-06T08:36:06;98509.81;;;21.42;100.00
66176;BME280;52977;44.816;20.538;2023-08-06T08:38:32;98498.06;;;21.34;100.00
66176;BME280;52977;44.816;20.538;2023-08-06T08:40:58;98540.78;;;21.64;100.00
66176;BME280;52977;44.816;20.538;2023-08-06T08:43:24;98462.25;;;21.20;100.00
66176;BME280;52977;44.816;20.538;2023-08-06T08:45:51;98537.88;;;21.72;100.00
66176;BME280;52977;44.816;20.538;2023-08-06T08:48:18;98550.03;;;21.78;100.00
66176;BME280;52977;44.816;20.538;2023-08-06T08:50:45;98542.41;;;21.82;100.00
66176;BME280;52977;44.816;20.538;2023-08-06T08:53:16;98552.25;;;21.87;100.00
66176;BME280;52977;44.816;20.538;2023-08-06T08:55:46;98549.69;;;21.96;100.00
66176;BME280;52977;44.816;20.538;2023-08-06T08:58:13;98542.22;;;21.93;97.18
66176;BME280;52977;44.816;20.538;2023-08-06T09:00:43;98554.47;;;21.95;96.66
66176;BME280;52977;44.816;20.538;2023-08-06T09:03:11;98444.31;;;21.25;93.43
66176;BME280;52977;44.816;20.538;2023-08-06T09:05:42;98545.91;;;21.86;97.43
66176;BME280;52977;44.816;20.538;2023-08-06T09:08:11;98540.50;;;21.99;97.49
66176;BME280;52977;44.816;20.538;2023-08-06T09:10:40;98547.03;;;22.09;98.83
66176;BME280;52977;44.816;20.538;2023-08-06T09:13:07;98541.34;;;22.16;96.90
66176;BME280;52977;44.816;20.538;2023-08-06T09:15:34;98531.44;;;22.15;96.63
66176;BME280;52977;44.816;20.538;2023-08-06T09:18:09;98501.53;;;22.02;96.58
66176;BME280;52977;44.816;20.538;2023-08-06T09:20:37;98518.59;;;22.21;98.09
66176;BME280;52977;44.816;20.538;2023-08-06T09:23:10;98480.81;;;21.87;99.95
66176;BME280;52977;44.816;20.538;2023-08-06T09:25:40;98478.91;;;21.84;99.03
66176;BME280;52977;44.816;20.538;2023-08-06T09:28:06;98528.00;;;22.27;98.02
66176;BME280;52977;44.816;20.538;2023-08-06T09:30:35;98526.31;;;22.33;95.27
66176;BME280;52977;44.816;20.538;2023-08-06T09:33:02;98505.41;;;22.25;93.67
66176;BME280;52977;44.816;20.538;2023-08-06T09:35:31;98514.44;;;22.29;95.79
66176;BME280;52977;44.816;20.538;2023-08-06T09:38:08;98518.44;;;22.28;95.58
66176;BME280;52977;44.816;20.538;2023-08-06T09:40:35;98521.44;;;22.38;96.32
66176;BME280;52977;44.816;20.538;2023-08-06T09:43:02;98481.34;;;22.18;94.48
66176;BME280;52977;44.816;20.538;2023-08-06T09:45:37;98492.81;;;22.21;94.49
66176;BME280;52977;44.816;20.538;2023-08-06T09:48:07;98522.16;;;22.42;95.72
66176;BME280;52977;44.816;20.538;2023-08-06T09:50:35;98518.16;;;22.43;95.08
66176;BME280;52977;44.816;20.538;2023-08-06T09:53:03;98515.19;;;22.33;92.57
66176;BME280;52977;44.816;20.538;2023-08-06T09:55:30;98508.81;;;22.33;93.38
66176;BME280;52977;44.816;20.538;2023-08-06T09:57:58;98530.22;;;22.36;94.18
66176;BME280;52977;44.816;20.538;2023-08-06T10:00:25;98474.38;;;22.10;96.77
66176;BME280;52977;44.816;20.538;2023-08-06T10:02:53;98504.06;;;22.33;97.77
66176;BME280;52977;44.816;20.538;2023-08-06T10:05:22;98510.59;;;22.43;96.10
66176;BME280;52977;44.816;20.538;2023-08-06T10:07:49;98457.16;;;21.99;93.34
66176;BME280;52977;44.816;20.538;2023-08-06T10:10:17;98457.78;;;22.07;93.46
66176;BME280;52977;44.816;20.538;2023-08-06T10:12:54;98492.00;;;22.20;96.67
66176;BME280;52977;44.816;20.538;2023-08-06T10:15:26;98517.97;;;22.33;95.45
66176;BME280;52977;44.816;20.538;2023-08-06T10:17:55;98447.81;;;21.89;93.50
66176;BME280;52977;44.816;20.538;2023-08-06T10:20:22;98487.09;;;22.28;92.69
66176;BME280;52977;44.816;20.538;2023-08-06T10:23:05;98499.91;;;22.42;89.48
66176;BME280;52977;44.816;20.538;2023-08-06T10:25:34;98446.75;;;22.03;87.74
66176;BME280;52977;44.816;20.538;2023-08-06T10:28:06;98506.00;;;22.53;92.25
66176;BME280;52977;44.816;20.538;2023-08-06T10:30:41;98496.03;;;22.56;91.25
66176;BME280;52977;44.816;20.538;2023-08-06T10:33:07;98428.19;;;22.16;89.46
66176;BME280;52977;44.816;20.538;2023-08-06T10:35:44;98458.16;;;22.45;87.59
66176;BME280;52977;44.816;20.538;2023-08-06T10:38:12;98482.13;;;22.56;88.86
66176;BME280;52977;44.816;20.538;2023-08-06T10:40:41;98498.03;;;22.55;90.41
66176;BME280;52977;44.816;20.538;2023-08-06T10:46:01;98489.56;;;22.42;88.18
66176;BME280;52977;44.816;20.538;2023-08-06T10:48:29;98487.94;;;22.45;87.80
66176;BME280;52977;44.816;20.538;2023-08-06T10:51:15;98467.00;;;22.40;88.89
66176;BME280;52977;44.816;20.538;2023-08-06T10:53:43;98487.34;;;22.70;84.31
66176;BME280;52977;44.816;20.538;2023-08-06T10:56:16;98481.69;;;22.74;83.17
66176;BME280;52977;44.816;20.538;2023-08-06T10:58:43;98487.94;;;22.61;84.61
66176;BME280;52977;44.816;20.538;2023-08-06T11:01:10;98475.53;;;22.49;85.22
66176;BME280;52977;44.816;20.538;2023-08-06T11:03:37;98485.06;;;22.48;86.69
66176;BME280;52977;44.816;20.538;2023-08-06T11:06:04;98493.69;;;22.54;88.64
66176;BME280;52977;44.816;20.538;2023-08-06T11:08:35;98462.00;;;22.31;89.54
66176;BME280;52977;44.816;20.538;2023-08-06T11:11:12;98494.47;;;22.71;89.96
66176;BME280;52977;44.816;20.538;2023-08-06T11:13:40;98487.78;;;22.85;88.14
66176;BME280;52977;44.816;20.538;2023-08-06T11:16:07;98488.72;;;22.95;88.65
66176;BME280;52977;44.816;20.538;2023-08-06T11:18:34;98486.50;;;22.73;86.72
66176;BME280;52977;44.816;20.538;2023-08-06T11:21:00;98481.75;;;22.53;87.50
66176;BME280;52977;44.816;20.538;2023-08-06T11:23:28;98470.09;;;22.42;88.00
66176;BME280;52977;44.816;20.538;2023-08-06T11:25:57;98495.97;;;22.59;90.05
66176;BME280;52977;44.816;20.538;2023-08-06T11:28:24;98488.81;;;22.58;87.29
66176;BME280;52977;44.816;20.538;2023-08-06T11:30:50;98488.91;;;22.55;87.80
66176;BME280;52977;44.816;20.538;2023-08-06T11:33:22;98498.03;;;22.55;88.13
66176;BME280;52977;44.816;20.538;2023-08-06T11:35:50;98471.94;;;22.49;88.25
66176;BME280;52977;44.816;20.538;2023-08-06T11:38:17;98497.50;;;22.60;87.76
66176;BME280;52977;44.816;20.538;2023-08-06T11:40:44;98483.84;;;22.66;85.97
66176;BME280;52977;44.816;20.538;2023-08-06T11:43:14;98484.13;;;22.72;87.08
66176;BME280;52977;44.816;20.538;2023-08-06T11:45:41;98494.28;;;22.78;86.67
66176;BME280;52977;44.816;20.538;2023-08-06T11:48:07;98483.09;;;22.82;87.11
66176;BME280;52977;44.816;20.538;2023-08-06T11:50:37;98494.22;;;22.98;86.50
66176;BME280;52977;44.816;20.538;2023-08-06T11:53:07;98488.47;;;23.06;86.35
66176;BME280;52977;44.816;20.538;2023-08-06T11:55:33;98457.59;;;23.00;86.06
66176;BME280;52977;44.816;20.538;2023-08-06T11:58:03;98484.81;;;23.25;84.46
66176;BME280;52977;44.816;20.538;2023-08-06T12:00:30;98486.63;;;23.32;81.66
66176;BME280;52977;44.816;20.538;2023-08-06T12:02:57;98445.16;;;23.04;84.14
66176;BME280;52977;44.816;20.538;2023-08-06T12:05:24;98470.84;;;23.12;83.74
66176;BME280;52977;44.816;20.538;2023-08-06T12:07:56;98486.81;;;23.25;83.58
66176;BME280;52977;44.816;20.538;2023-08-06T12:10:24;98505.88;;;23.26;83.45
66176;BME280;52977;44.816;20.538;2023-08-06T12:12:50;98494.13;;;23.18;83.75
66176;BME280;52977;44.816;20.538;2023-08-06T12:15:16;98459.34;;;22.94;85.35
66176;BME280;52977;44.816;20.538;2023-08-06T12:17:43;98493.34;;;23.18;83.60
66176;BME280;52977;44.816;20.538;2023-08-06T12:20:10;98446.06;;;22.85;84.26
66176;BME280;52977;44.816;20.538;2023-08-06T12:22:37;98480.28;;;23.15;80.35
66176;BME280;52977;44.816;20.538;2023-08-06T12:25:09;98498.13;;;23.17;82.71
66176;BME280;52977;44.816;20.538;2023-08-06T12:27:38;98454.66;;;22.91;80.51
66176;BME280;52977;44.816;20.538;2023-08-06T12:30:06;98466.03;;;22.96;79.47
66176;BME280;52977;44.816;20.538;2023-08-06T12:32:34;98493.59;;;23.24;76.33
66176;BME280;52977;44.816;20.538;2023-08-06T12:35:01;98483.75;;;23.19;75.40
66176;BME280;52977;44.816;20.538;2023-08-06T12:37:27;98495.31;;;23.34;76.23
66176;BME280;52977;44.816;20.538;2023-08-06T12:39:53;98486.28;;;23.30;76.57
66176;BME280;52977;44.816;20.538;2023-08-06T12:42:19;98507.06;;;23.42;76.39
66176;BME280;52977;44.816;20.538;2023-08-06T12:44:45;98505.81;;;23.43;75.17
66176;BME280;52977;44.816;20.538;2023-08-06T12:47:11;98506.38;;;23.37;75.09
66176;BME280;52977;44.816;20.538;2023-08-06T12:49:37;98499.31;;;23.33;77.62
66176;BME280;52977;44.816;20.538;2023-08-06T12:52:04;98469.53;;;23.17;77.43